GCHI/VDE METAR and TAF weather

Enter ICAO airport designator
Station Type Date Time Source
GCHI METAR 2019/12/11 15:00 UTC NOAA

GCHI 111500Z 05021KT 9999 FEW022 21/16 Q1025


Station Type Date Time Source
GCHI Decoded METAR 2019/12/11 15:00 UTC NOAA

Hierro / Aeropuerto, Spain (GCHI) 27-49N 017-53W 32M
Dec 11, 2019 - 10:00 AM EST / 2019.12.11 1500 UTC
Wind: from the NE (050 degrees) at 24 MPH (21 KT):0
Visibility: greater than 7 mile(s):0
Sky conditions: mostly clear
Temperature: 69 F (21 C)
Dew Point: 60 F (16 C)
Relative Humidity: 73%
Pressure (altimeter): 30.27 in. Hg (1025 hPa)
ob: GCHI 111500Z 05021KT 9999 FEW022 21/16 Q1025
cycle: 15

Station Type Date Time Source
GCHI TAF 2019/12/11 15:00 UTC NOAA

TAF GCHI 111400Z 1115/1215 04018KT 9999 SCT025 TX22/1214Z TN18/1206Z PROB30
TEMPO 1115/1215 03018G28KT

Example: see airport list